Nicholas White

Olheiro-Chefe - Wigan Athletic
4 Dez 2028
Segunda-feira
Processo

Personalidade

Adaptabilidade (3) Ambição (14) Controvérsia (5) Lealdade (1) Pressão (4) Profissionalismo (7) Espírito Esportivo (1) Temperamento (3)

Perfil

Estilo de Treinamento Democrático
Licença Nacional B
Determinação 5
Gestão de Pessoas 3
Motivação 7
Disciplina 3
Satisfação no Trabalho
100%
Fadiga
0%
Função Olheiro-Chefe
Salário 47.5K p/s
Contrato 14.03.2029

Desempenho

Comportamento Bom
Eficácia do Treinamento
33%
Desenvolvimento do Jogador
25%
Prevenção de Lesões
45%
Implementação Tática
35%

Eventos Recentes

Participou de uma reunião de recrutamento agora
Recomendou um alvo de transferência agora
Recomendou um alvo de transferência agora
Recomendou um alvo de transferência agora
Recomendou um alvo de transferência agora
Recomendou um alvo de transferência 7d atrás
Recomendou um alvo de transferência 7d atrás
Recomendou um alvo de transferência 7d atrás

Monitorando agora

95
Jogador Clube Status Habilidade Confiança Observado Última observação Último voto
Kevin Berkoe Shrewsbury Town Ativo 95 / 92 72% 1 07.08.2028 Aprovar
Nathan Asiimwe Charlton Athletic Ativo 96 / 97 65% 1 24.01.2028 Aprovar
Jake Evans Crewe Alexandra Ativo 99 / 111 73% 1 01.01.2028 Aprovar
Ilja Zhbanov Cobresal Ativo 90 / 94 66% 1 01.01.2028 Aprovar
Sam Vokes Ativo 89 / 84 62% 1 28.06.2027 Aprovar
Tamas Kleinheisler St. Pauli Rejeitado 114 / 121 66% 1 01.06.2027 Rejeitar
Jonathan Varane Queens Park Rangers Ativo 124 / 125 40% 1 30.05.2027 -
Lee Buchanan Sheffield Wednesday Ativo 125 / 130 40% 1 29.05.2027 -
Oswin Appollis Orlando Pirates Ativo 123 / 108 40% 3 28.05.2027 -
Dennis Cirkin Queens Park Rangers Ativo 130 / 138 40% 4 28.05.2027 -
Giorgi Chakvetadze Watford Ativo 132 / 124 40% 2 27.05.2027 -
Thulani Mabaso Platinum Stars Ativo 111 / 115 40% 1 26.05.2027 -
Aaron Morley Wycombe Wanderers Ativo 123 / 119 40% 1 26.05.2027 -
Nicolas Madsen Queens Park Rangers Ativo 123 / 132 40% 2 23.05.2027 -
Liam Thompson Mansfield Town Ativo 115 / 119 40% 1 23.05.2027 -
Caylan Vickers Burton Albion Ativo 106 / 122 40% 1 19.05.2027 -
Jacques Ekomié Wrexham Ativo 135 / 131 40% 1 15.05.2027 -
Sam Mather Walsall Ativo 105 / 106 40% 2 13.05.2027 -
Darlin Yongwa Norwich City Ativo 131 / 122 40% 3 12.05.2027 -
Bradley Zwane SuperSport United Ativo 115 / 129 40% 5 10.05.2027 -
Harry Clarke Preston Ativo 118 / 128 40% 2 09.05.2027 -
Sonny Carey Charlton Athletic Ativo 118 / 110 40% 1 09.05.2027 -
Cian Ashford Cardiff City Ativo 120 / 113 40% 4 05.05.2027 -
Kwadwo Baah Watford Ativo 122 / 134 40% 1 03.05.2027 -
Scott Twine Bristol City Ativo 126 / 127 40% 4 02.05.2027 -
George Earthy Reading Ativo 108 / 114 40% 1 02.05.2027 -
Isaac Inusah Wa All Stars Ativo 104 / 106 40% 1 01.05.2027 -
Darragh Burns Grimsby Town Ativo 98 / 92 40% 2 29.04.2027 -
Sam Greenwood Bristol City Ativo 134 / 121 40% 2 27.04.2027 -
Andrea Colpani Monza Ativo 139 / 139 40% 1 27.04.2027 -
Alfie Devine Preston Ativo 108 / 118 40% 1 26.04.2027 -
Bongani Zungu Ajax Cape Town Ativo 114 / 136 40% 2 25.04.2027 -
Othmane Maamma Watford Ativo 124 / 125 40% 4 24.04.2027 -
Camillo Tavernelli Arezzo Ativo 120 / 112 40% 1 22.04.2027 -
Kristoffer Lund Birmingham Ativo 135 / 130 40% 1 21.04.2027 -
Bosun Lawal Stoke City Ativo 118 / 135 40% 3 20.04.2027 -
Daniel Kyerewaa Reading Ativo 121 / 116 40% 2 19.04.2027 -
Simon Ramabu Polokwane City Ativo 96 / 113 40% 1 19.04.2027 -
Isaiah Jones Luton Town Ativo 117 / 128 40% 2 17.04.2027 -
Toby Collyer West Bromwich Albion Ativo 133 / 124 40% 1 17.04.2027 -
Jack Currie Oxford United Ativo 132 / 121 40% 1 16.04.2027 -
Jack Moylan Lincoln City Ativo 113 / 100 40% 1 15.04.2027 -
Rocco Vata Watford Ativo 120 / 132 40% 1 13.04.2027 -
David Turnbull Cardiff City Ativo 127 / 115 40% 1 12.04.2027 -
Tony Springett Cheltenham Town Ativo 97 / 105 40% 2 10.04.2027 -
Max Bird Birmingham Ativo 144 / 140 40% 3 09.04.2027 -
Tyler Goodrham Oxford United Ativo 124 / 120 40% 1 07.04.2027 -
Mohammed Essien Hasaacas Ativo 105 / 94 40% 2 06.04.2027 -
Malik Mothersille Stockport County Ativo 112 / 112 40% 3 04.04.2027 -
Romano Floriani Mussolini Blackpool Ativo 124 / 120 40% 2 31.03.2027 -
Ronaldo Maarman University of Pretoria Ativo 93 / 98 40% 1 17.03.2027 -
Marcelo Allende Mamelodi Sundowns Ativo 142 / 137 40% 2 13.03.2027 -
Gomolemo Kekana Maritzburg United Ativo 93 / 120 40% 1 13.03.2027 -
Jack Diamond Stockport County Ativo 117 / 119 40% 1 12.03.2027 -
Hamdi Akujobi JS Kabylie Ativo 106 / 108 40% 2 11.03.2027 -
Derensili Sanches Fernandes Huddersfield Town Ativo 125 / 120 40% 2 11.03.2027 -
Adam Randell Bristol City Ativo 132 / 119 40% 2 09.03.2027 -
Goodman Mosele Chippa United Ativo 97 / 96 40% 1 06.03.2027 -
Joe Gelhardt Hull City Ativo 138 / 132 40% 1 04.03.2027 -
Harvey Vale Queens Park Rangers Ativo 128 / 123 40% 1 04.01.2027 -
Sampson Dweh Mallorca Ativo 133 / 134 66% 1 01.01.2027 Aprovar
Malick Mbaye Zulte Waregem Rejeitado 111 / 116 66% 1 01.01.2027 Rejeitar
Asanele Velebayi Kaizer Chiefs Ativo 114 / 108 40% 1 29.12.2026 -
Themba Dala Black Aces Ativo 120 / 109 40% 1 20.12.2026 -
Jesus Ferreira Seattle Sounders Ativo 132 / 133 40% 2 15.12.2026 -
Armstrong Oko-Flex Levski Ativo 133 / 103 40% 3 14.12.2026 -
Yanela Mbuthuma Orlando Pirates Ativo 121 / 106 40% 1 14.12.2026 -
Aune Heggebø West Bromwich Albion Ativo 134 / 117 40% 2 11.12.2026 -
Ammar Ramadan DAC Dunajska Streda Ativo 134 / 122 40% 1 11.12.2026 -
Nathan Ordaz DC United Ativo 111 / 107 40% 1 05.12.2026 -
Yousef Salech Cardiff City Ativo 136 / 126 40% 2 04.12.2026 -
Dejan Joveljić Seattle Sounders Ativo 135 / 133 40% 1 04.12.2026 -
Josh Sargent Toronto FC Ativo 139 / 133 40% 2 01.12.2026 -
Facundo Mura Inter Miami CF Ativo 118 / 117 40% 1 27.11.2026 -
Kévin Denkey FC Cincinnati Ativo 130 / 127 40% 2 24.11.2026 -
Dwight McNeil Crystal Palace Ativo 139 / 147 40% 1 23.11.2026 -
Isaac Matondo Koper Ativo 110 / 114 40% 1 22.11.2026 -
Erick Dolly Black Aces Ativo 102 / 130 40% 2 21.11.2026 -
Paschal Durugbor El Dakhleya Ativo 91 / 93 40% 1 21.11.2026 -
Etiosa Ighodaro Kaizer Chiefs Ativo 115 / 112 40% 2 20.11.2026 -
Juan Bezerra Zamalek Ativo 119 / 124 40% 1 19.11.2026 -
David Da Costa Portland Timbers Ativo 142 / 128 40% 1 17.11.2026 -
Tadeo Allende Inter Miami CF Ativo 113 / 120 40% 1 15.11.2026 -
Alexander Aravena Portland Timbers Ativo 112 / 129 40% 1 13.11.2026 -
Kelvin Yeboah Minnesota United FC Ativo 112 / 119 40% 2 12.11.2026 -
Petar Stanić Ludogorets Ativo 140 / 150 40% 1 12.11.2026 -
Brooklyn Poggenpoel Maritzburg United Ativo 120 / 115 40% 1 09.11.2026 -
Telasco Segovia Inter Miami CF Ativo 135 / 134 40% 1 09.11.2026 -
Agustín Anello Philadelphia Union Ativo 127 / 130 40% 1 07.11.2026 -
Tyrese Campbell Sheffield United Ativo 132 / 117 40% 1 07.11.2026 -
Lebogang Manyama SuperSport United Ativo 102 / 111 40% 1 06.11.2026 -
Pablo Ruiz Real Salt Lake Ativo 130 / 125 40% 1 06.11.2026 -
Evidence Makgopa Orlando Pirates Ativo 125 / 98 40% 1 03.11.2026 -
Cheikh Sabaly Vancouver Whitecaps Ativo 129 / 134 40% 1 03.11.2026 -
Martín Ojeda Orlando City Ativo 151 / 140 40% 1 02.11.2026 -